Aviation Digital Data Service (ADDS)

Output produced by METARs form (1105 UTC 18 June 2019)
found at http://www.aviationweather.gov/metar/data/
 
METAR text: OIII 181030Z 19008KT 9999 FEW035 SCT190 36/M00 Q1010 A2984
Conditions at: OIII (TEHRAN/MEHRABAD , IR) observed 1030 UTC 18 June 2019
Temperature: 36.0°C (97°F)
Dewpoint: 0.0°C (32°F) [RH = 10%]
Pressure (altimeter): 29.82 inches Hg (1010.0 mb)
Winds: from the S (190 degrees) at 9 MPH (8 knots; 4.1 m/s)
Visibility: 6 or more miles (10+ km)
Ceiling: at least 12,000 feet AGL
Clouds: few clouds at 3500 feet AGL
scattered clouds at 19000 feet AGL
Weather: no significant weather observed at this time

METAR text: OIII 181000Z 07008KT 9999 FEW035 35/00 Q1010 A2985
Conditions at: OIII (TEHRAN/MEHRABAD , IR) observed 1000 UTC 18 June 2019
Temperature: 35.0°C (95°F)
Dewpoint: 0.0°C (32°F) [RH = 11%]
Pressure (altimeter): 29.82 inches Hg (1010.0 mb)
Winds: from the ENE (70 degrees) at 9 MPH (8 knots; 4.1 m/s)
Visibility: 6 or more miles (10+ km)
Ceiling: at least 12,000 feet AGL
Clouds: few clouds at 3500 feet AGL
Weather: no significant weather observed at this time

METAR text: OIII 180930Z 10008KT 9999 FEW035 35/02 Q1011 A2986
Conditions at: OIII (TEHRAN/MEHRABAD , IR) observed 0930 UTC 18 June 2019
Temperature: 35.0°C (95°F)
Dewpoint: 2.0°C (36°F) [RH = 13%]
Pressure (altimeter): 29.85 inches Hg (1011.0 mb)
Winds: from the E (100 degrees) at 9 MPH (8 knots; 4.1 m/s)
Visibility: 6 or more miles (10+ km)
Ceiling: at least 12,000 feet AGL
Clouds: few clouds at 3500 feet AGL
Weather: no significant weather observed at this time

METAR text: OIII 180900Z 09008KT 9999 FEW035 34/02 Q1011 A2988 NOSIG
Conditions at: OIII (TEHRAN/MEHRABAD , IR) observed 0900 UTC 18 June 2019
Temperature: 34.0°C (93°F)
Dewpoint: 2.0°C (36°F) [RH = 13%]
Pressure (altimeter): 29.85 inches Hg (1011.0 mb)
Winds: from the E (90 degrees) at 9 MPH (8 knots; 4.1 m/s)
Visibility: 6 or more miles (10+ km)
Ceiling: at least 12,000 feet AGL
Clouds: few clouds at 3500 feet AGL
Weather: no significant weather observed at this time

METAR text: OIII 180830Z 05006KT 9999 FEW035 34/02 Q1012 A2989
Conditions at: OIII (TEHRAN/MEHRABAD , IR) observed 0830 UTC 18 June 2019
Temperature: 34.0°C (93°F)
Dewpoint: 2.0°C (36°F) [RH = 13%]
Pressure (altimeter): 29.88 inches Hg (1012.0 mb)
Winds: from the NE (50 degrees) at 7 MPH (6 knots; 3.1 m/s)
Visibility: 6 or more miles (10+ km)
Ceiling: at least 12,000 feet AGL
Clouds: few clouds at 3500 feet AGL
Weather: no significant weather observed at this time

METAR text: OIII 180800Z 10010KT 9999 FEW035 34/01 Q1012 A2990 NOSIG
Conditions at: OIII (TEHRAN/MEHRABAD , IR) observed 0800 UTC 18 June 2019
Temperature: 34.0°C (93°F)
Dewpoint: 1.0°C (34°F) [RH = 12%]
Pressure (altimeter): 29.88 inches Hg (1012.0 mb)
Winds: from the E (100 degrees) at 12 MPH (10 knots; 5.1 m/s)
Visibility: 6 or more miles (10+ km)
Ceiling: at least 12,000 feet AGL
Clouds: few clouds at 3500 feet AGL
Weather: no significant weather observed at this time

METAR text: OIII 180730Z 10012KT 9999 FEW035 33/01 Q1012 A2991
Conditions at: OIII (TEHRAN/MEHRABAD , IR) observed 0730 UTC 18 June 2019
Temperature: 33.0°C (91°F)
Dewpoint: 1.0°C (34°F) [RH = 13%]
Pressure (altimeter): 29.88 inches Hg (1012.0 mb)
Winds: from the E (100 degrees) at 14 MPH (12 knots; 6.2 m/s)
Visibility: 6 or more miles (10+ km)
Ceiling: at least 12,000 feet AGL
Clouds: few clouds at 3500 feet AGL
Weather: no significant weather observed at this time

METAR text: OIII 180700Z 13012KT 9999 FEW035 33/01 Q1013 A2991
Conditions at: OIII (TEHRAN/MEHRABAD , IR) observed 0700 UTC 18 June 2019
Temperature: 33.0°C (91°F)
Dewpoint: 1.0°C (34°F) [RH = 13%]
Pressure (altimeter): 29.91 inches Hg (1013.0 mb)
Winds: from the SE (130 degrees) at 14 MPH (12 knots; 6.2 m/s)
Visibility: 6 or more miles (10+ km)
Ceiling: at least 12,000 feet AGL
Clouds: few clouds at 3500 feet AGL
Weather: no significant weather observed at this time

METAR text: OIII 180630Z 13012KT CAVOK 33/01 Q1013 A2992
Conditions at: OIII (TEHRAN/MEHRABAD , IR) observed 0630 UTC 18 June 2019
Temperature: 33.0°C (91°F)
Dewpoint: 1.0°C (34°F) [RH = 13%]
Pressure (altimeter): 29.91 inches Hg (1013.0 mb)
Winds: from the SE (130 degrees) at 14 MPH (12 knots; 6.2 m/s)
Visibility: 6 or more miles (10+ km)
Ceiling: ceiling and visibility are OK
Clouds: unknown
Weather: no significant weather observed at this time

METAR text: OIII 180600Z 13012KT CAVOK 32/00 Q1013 A2992 NOSIG
Conditions at: OIII (TEHRAN/MEHRABAD , IR) observed 0600 UTC 18 June 2019
Temperature: 32.0°C (90°F)
Dewpoint: 0.0°C (32°F) [RH = 13%]
Pressure (altimeter): 29.91 inches Hg (1013.0 mb)
Winds: from the SE (130 degrees) at 14 MPH (12 knots; 6.2 m/s)
Visibility: 6 or more miles (10+ km)
Ceiling: ceiling and visibility are OK
Clouds: unknown
Weather: no significant weather observed at this time

METAR text: OIII 180530Z 12010KT CAVOK 32/01 Q1013 A2992
Conditions at: OIII (TEHRAN/MEHRABAD , IR) observed 0530 UTC 18 June 2019
Temperature: 32.0°C (90°F)
Dewpoint: 1.0°C (34°F) [RH = 14%]
Pressure (altimeter): 29.91 inches Hg (1013.0 mb)
Winds: from the ESE (120 degrees) at 12 MPH (10 knots; 5.1 m/s)
Visibility: 6 or more miles (10+ km)
Ceiling: ceiling and visibility are OK
Clouds: unknown
Weather: no significant weather observed at this time

METAR text: OIII 180500Z 11010KT CAVOK 31/01 Q1013 A2992
Conditions at: OIII (TEHRAN/MEHRABAD , IR) observed 0500 UTC 18 June 2019
Temperature: 31.0°C (88°F)
Dewpoint: 1.0°C (34°F) [RH = 15%]
Pressure (altimeter): 29.91 inches Hg (1013.0 mb)
Winds: from the ESE (110 degrees) at 12 MPH (10 knots; 5.1 m/s)
Visibility: 6 or more miles (10+ km)
Ceiling: ceiling and visibility are OK
Clouds: unknown
Weather: no significant weather observed at this time

METAR text: OIII 180430Z 09008KT CAVOK 31/00 Q1013 A2992
Conditions at: OIII (TEHRAN/MEHRABAD , IR) observed 0430 UTC 18 June 2019
Temperature: 31.0°C (88°F)
Dewpoint: 0.0°C (32°F) [RH = 14%]
Pressure (altimeter): 29.91 inches Hg (1013.0 mb)
Winds: from the E (90 degrees) at 9 MPH (8 knots; 4.1 m/s)
Visibility: 6 or more miles (10+ km)
Ceiling: ceiling and visibility are OK
Clouds: unknown
Weather: no significant weather observed at this time

METAR text: OIII 180400Z 11010KT CAVOK 30/01 Q1012 A2991 NOSIG
Conditions at: OIII (TEHRAN/MEHRABAD , IR) observed 0400 UTC 18 June 2019
Temperature: 30.0°C (86°F)
Dewpoint: 1.0°C (34°F) [RH = 15%]
Pressure (altimeter): 29.88 inches Hg (1012.0 mb)
Winds: from the ESE (110 degrees) at 12 MPH (10 knots; 5.1 m/s)
Visibility: 6 or more miles (10+ km)
Ceiling: ceiling and visibility are OK
Clouds: unknown
Weather: no significant weather observed at this time

METAR text: OIII 180330Z 09008KT CAVOK 30/00 Q1012 A2991
Conditions at: OIII (TEHRAN/MEHRABAD , IR) observed 0330 UTC 18 June 2019
Temperature: 30.0°C (86°F)
Dewpoint: 0.0°C (32°F) [RH = 14%]
Pressure (altimeter): 29.88 inches Hg (1012.0 mb)
Winds: from the E (90 degrees) at 9 MPH (8 knots; 4.1 m/s)
Visibility: 6 or more miles (10+ km)
Ceiling: ceiling and visibility are OK
Clouds: unknown
Weather: no significant weather observed at this time

METAR text: OIII 180300Z 09006KT 9000 NSC 28/01 Q1012 A2990 NOSIG
Conditions at: OIII (TEHRAN/MEHRABAD , IR) observed 0300 UTC 18 June 2019
Temperature: 28.0°C (82°F)
Dewpoint: 1.0°C (34°F) [RH = 17%]
Pressure (altimeter): 29.88 inches Hg (1012.0 mb)
Winds: from the E (90 degrees) at 7 MPH (6 knots; 3.1 m/s)
Visibility: 6 miles ( 9 km)
Ceiling: at least 12,000 feet AGL
Clouds: sky clear below 12,000 feet AGL
Weather: no significant weather observed at this time

METAR text: OIII 180250Z 09006KT 9000 NSC 28/01 Q1012 A2990 NOSIG
Conditions at: OIII (TEHRAN/MEHRABAD , IR) observed 0250 UTC 18 June 2019
Temperature: 28.0°C (82°F)
Dewpoint: 1.0°C (34°F) [RH = 17%]
Pressure (altimeter): 29.88 inches Hg (1012.0 mb)
Winds: from the E (90 degrees) at 7 MPH (6 knots; 3.1 m/s)
Visibility: 6 miles ( 9 km)
Ceiling: at least 12,000 feet AGL
Clouds: sky clear below 12,000 feet AGL
Weather: no significant weather observed at this time

METAR text: OIII 180230Z 06006KT CAVOK 28/M02 Q1012 A2989
Conditions at: OIII (TEHRAN/MEHRABAD , IR) observed 0230 UTC 18 June 2019
Temperature: 28.0°C (82°F)
Dewpoint: -2.0°C (28°F) [RH = 14%]
Pressure (altimeter): 29.88 inches Hg (1012.0 mb)
Winds: from the ENE (60 degrees) at 7 MPH (6 knots; 3.1 m/s)
Visibility: 6 or more miles (10+ km)
Ceiling: ceiling and visibility are OK
Clouds: unknown
Weather: no significant weather observed at this time

METAR text: OIII 180220Z 06006KT CAVOK 28/M02 Q1012 A2989
Conditions at: OIII (TEHRAN/MEHRABAD , IR) observed 0220 UTC 18 June 2019
Temperature: 28.0°C (82°F)
Dewpoint: -2.0°C (28°F) [RH = 14%]
Pressure (altimeter): 29.88 inches Hg (1012.0 mb)
Winds: from the ENE (60 degrees) at 7 MPH (6 knots; 3.1 m/s)
Visibility: 6 or more miles (10+ km)
Ceiling: ceiling and visibility are OK
Clouds: unknown
Weather: no significant weather observed at this time

METAR text: OIII 180200Z 03004KT 9999 FEW090 27/01 Q1012 A2989 NOSIG
Conditions at: OIII (TEHRAN/MEHRABAD , IR) observed 0200 UTC 18 June 2019
Temperature: 27.0°C (81°F)
Dewpoint: 1.0°C (34°F) [RH = 18%]
Pressure (altimeter): 29.88 inches Hg (1012.0 mb)
Winds: from the NNE (30 degrees) at 5 MPH (4 knots; 2.1 m/s)
Visibility: 6 or more miles (10+ km)
Ceiling: at least 12,000 feet AGL
Clouds: few clouds at 9000 feet AGL
Weather: no significant weather observed at this time

METAR text: OIII 180150Z 03004KT 9999 FEW090 27/01 Q1012 A2989 NOSIG
Conditions at: OIII (TEHRAN/MEHRABAD , IR) observed 0150 UTC 18 June 2019
Temperature: 27.0°C (81°F)
Dewpoint: 1.0°C (34°F) [RH = 18%]
Pressure (altimeter): 29.88 inches Hg (1012.0 mb)
Winds: from the NNE (30 degrees) at 5 MPH (4 knots; 2.1 m/s)
Visibility: 6 or more miles (10+ km)
Ceiling: at least 12,000 feet AGL
Clouds: few clouds at 9000 feet AGL
Weather: no significant weather observed at this time

METAR text: OIII 180130Z 08006KT 9999 FEW090 26/03 Q1011 A2987
Conditions at: OIII (TEHRAN/MEHRABAD , IR) observed 0130 UTC 18 June 2019
Temperature: 26.0°C (79°F)
Dewpoint: 3.0°C (37°F) [RH = 23%]
Pressure (altimeter): 29.85 inches Hg (1011.0 mb)
Winds: from the E (80 degrees) at 7 MPH (6 knots; 3.1 m/s)
Visibility: 6 or more miles (10+ km)
Ceiling: at least 12,000 feet AGL
Clouds: few clouds at 9000 feet AGL
Weather: no significant weather observed at this time

METAR text: OIII 180120Z 08006KT 9999 FEW090 26/03 Q1011 A2987
Conditions at: OIII (TEHRAN/MEHRABAD , IR) observed 0120 UTC 18 June 2019
Temperature: 26.0°C (79°F)
Dewpoint: 3.0°C (37°F) [RH = 23%]
Pressure (altimeter): 29.85 inches Hg (1011.0 mb)
Winds: from the E (80 degrees) at 7 MPH (6 knots; 3.1 m/s)
Visibility: 6 or more miles (10+ km)
Ceiling: at least 12,000 feet AGL
Clouds: few clouds at 9000 feet AGL
Weather: no significant weather observed at this time

METAR text: OIII 180100Z 00000KT CAVOK 25/02 Q1010 A2985 NOSIG
Conditions at: OIII (TEHRAN/MEHRABAD , IR) observed 0100 UTC 18 June 2019
Temperature: 25.0°C (77°F)
Dewpoint: 2.0°C (36°F) [RH = 22%]
Pressure (altimeter): 29.82 inches Hg (1010.0 mb)
Winds: calm
Visibility: 6 or more miles (10+ km)
Ceiling: ceiling and visibility are OK
Clouds: unknown
Weather: no significant weather observed at this time

METAR text: OIII 180050Z 00000KT CAVOK 25/02 Q1010 A2985 NOSIG
Conditions at: OIII (TEHRAN/MEHRABAD , IR) observed 0050 UTC 18 June 2019
Temperature: 25.0°C (77°F)
Dewpoint: 2.0°C (36°F) [RH = 22%]
Pressure (altimeter): 29.82 inches Hg (1010.0 mb)
Winds: calm
Visibility: 6 or more miles (10+ km)
Ceiling: ceiling and visibility are OK
Clouds: unknown
Weather: no significant weather observed at this time

METAR text: OIII 180030Z 02004KT CAVOK 26/01 Q1010 A2984
Conditions at: OIII (TEHRAN/MEHRABAD , IR) observed 0030 UTC 18 June 2019
Temperature: 26.0°C (79°F)
Dewpoint: 1.0°C (34°F) [RH = 20%]
Pressure (altimeter): 29.82 inches Hg (1010.0 mb)
Winds: from the NNE (20 degrees) at 5 MPH (4 knots; 2.1 m/s)
Visibility: 6 or more miles (10+ km)
Ceiling: ceiling and visibility are OK
Clouds: unknown
Weather: no significant weather observed at this time

METAR text: OIII 180020Z 02004KT CAVOK 26/01 Q1010 A2984
Conditions at: OIII (TEHRAN/MEHRABAD , IR) observed 0020 UTC 18 June 2019
Temperature: 26.0°C (79°F)
Dewpoint: 1.0°C (34°F) [RH = 20%]
Pressure (altimeter): 29.82 inches Hg (1010.0 mb)
Winds: from the NNE (20 degrees) at 5 MPH (4 knots; 2.1 m/s)
Visibility: 6 or more miles (10+ km)
Ceiling: ceiling and visibility are OK
Clouds: unknown
Weather: no significant weather observed at this time

METAR text: OIII 180000Z 00000KT CAVOK 26/M00 Q1010 A2984
Conditions at: OIII (TEHRAN/MEHRABAD , IR) observed 0000 UTC 18 June 2019
Temperature: 26.0°C (79°F)
Dewpoint: 0.0°C (32°F) [RH = 18%]
Pressure (altimeter): 29.82 inches Hg (1010.0 mb)
Winds: calm
Visibility: 6 or more miles (10+ km)
Ceiling: ceiling and visibility are OK
Clouds: unknown
Weather: no significant weather observed at this time

METAR text: OIII 172350Z 00000KT CAVOK 26/M00 Q1010 A2984
Conditions at: OIII (TEHRAN/MEHRABAD , IR) observed 2350 UTC 17 June 2019
Temperature: 26.0°C (79°F)
Dewpoint: 0.0°C (32°F) [RH = 18%]
Pressure (altimeter): 29.82 inches Hg (1010.0 mb)
Winds: calm
Visibility: 6 or more miles (10+ km)
Ceiling: ceiling and visibility are OK
Clouds: unknown
Weather: no significant weather observed at this time

METAR text: OIII 172330Z 00000KT CAVOK 26/M00 Q1010 A2984
Conditions at: OIII (TEHRAN/MEHRABAD , IR) observed 2330 UTC 17 June 2019
Temperature: 26.0°C (79°F)
Dewpoint: 0.0°C (32°F) [RH = 18%]
Pressure (altimeter): 29.82 inches Hg (1010.0 mb)
Winds: calm
Visibility: 6 or more miles (10+ km)
Ceiling: ceiling and visibility are OK
Clouds: unknown
Weather: no significant weather observed at this time

METAR text: OIII 172320Z 00000KT CAVOK 26/M00 Q1010 A2984
Conditions at: OIII (TEHRAN/MEHRABAD , IR) observed 2320 UTC 17 June 2019
Temperature: 26.0°C (79°F)
Dewpoint: 0.0°C (32°F) [RH = 18%]
Pressure (altimeter): 29.82 inches Hg (1010.0 mb)
Winds: calm
Visibility: 6 or more miles (10+ km)
Ceiling: ceiling and visibility are OK
Clouds: unknown
Weather: no significant weather observed at this time

METAR text: OIII 172300Z 31004KT CAVOK 28/M03 Q1010 A2984 NOSIG
Conditions at: OIII (TEHRAN/MEHRABAD , IR) observed 2300 UTC 17 June 2019
Temperature: 28.0°C (82°F)
Dewpoint: -3.0°C (27°F) [RH = 13%]
Pressure (altimeter): 29.82 inches Hg (1010.0 mb)
Winds: from the NW (310 degrees) at 5 MPH (4 knots; 2.1 m/s)
Visibility: 6 or more miles (10+ km)
Ceiling: ceiling and visibility are OK
Clouds: unknown
Weather: no significant weather observed at this time

METAR text: OIII 172250Z 31004KT CAVOK 28/M03 Q1010 A2984 NOSIG
Conditions at: OIII (TEHRAN/MEHRABAD , IR) observed 2250 UTC 17 June 2019
Temperature: 28.0°C (82°F)
Dewpoint: -3.0°C (27°F) [RH = 13%]
Pressure (altimeter): 29.82 inches Hg (1010.0 mb)
Winds: from the NW (310 degrees) at 5 MPH (4 knots; 2.1 m/s)
Visibility: 6 or more miles (10+ km)
Ceiling: ceiling and visibility are OK
Clouds: unknown
Weather: no significant weather observed at this time

METAR text: OIII 172200Z 23006KT CAVOK 29/M01 Q1010 A2984
Conditions at: OIII (TEHRAN/MEHRABAD , IR) observed 2200 UTC 17 June 2019
Temperature: 29.0°C (84°F)
Dewpoint: -1.0°C (30°F) [RH = 14%]
Pressure (altimeter): 29.82 inches Hg (1010.0 mb)
Winds: from the SW (230 degrees) at 7 MPH (6 knots; 3.1 m/s)
Visibility: 6 or more miles (10+ km)
Ceiling: ceiling and visibility are OK
Clouds: unknown
Weather: no significant weather observed at this time

METAR text: OIII 172150Z 23006KT CAVOK 29/M01 Q1010 A2984 NOSIG
Conditions at: OIII (TEHRAN/MEHRABAD , IR) observed 2150 UTC 17 June 2019
Temperature: 29.0°C (84°F)
Dewpoint: -1.0°C (30°F) [RH = 14%]
Pressure (altimeter): 29.82 inches Hg (1010.0 mb)
Winds: from the SW (230 degrees) at 7 MPH (6 knots; 3.1 m/s)
Visibility: 6 or more miles (10+ km)
Ceiling: ceiling and visibility are OK
Clouds: unknown
Weather: no significant weather observed at this time

METAR text: OIII 172130Z 00000KT CAVOK 30/M01 Q1010 A2984
Conditions at: OIII (TEHRAN/MEHRABAD , IR) observed 2130 UTC 17 June 2019
Temperature: 30.0°C (86°F)
Dewpoint: -1.0°C (30°F) [RH = 13%]
Pressure (altimeter): 29.82 inches Hg (1010.0 mb)
Winds: calm
Visibility: 6 or more miles (10+ km)
Ceiling: ceiling and visibility are OK
Clouds: unknown
Weather: no significant weather observed at this time

METAR text: OIII 172120Z 00000KT CAVOK 30/M01 Q1010 A2984
Conditions at: OIII (TEHRAN/MEHRABAD , IR) observed 2120 UTC 17 June 2019
Temperature: 30.0°C (86°F)
Dewpoint: -1.0°C (30°F) [RH = 13%]
Pressure (altimeter): 29.82 inches Hg (1010.0 mb)
Winds: calm
Visibility: 6 or more miles (10+ km)
Ceiling: ceiling and visibility are OK
Clouds: unknown
Weather: no significant weather observed at this time

METAR text: OIII 172100Z 00000KT CAVOK 30/M01 Q1010 A2984
Conditions at: OIII (TEHRAN/MEHRABAD , IR) observed 2100 UTC 17 June 2019
Temperature: 30.0°C (86°F)
Dewpoint: -1.0°C (30°F) [RH = 13%]
Pressure (altimeter): 29.82 inches Hg (1010.0 mb)
Winds: calm
Visibility: 6 or more miles (10+ km)
Ceiling: ceiling and visibility are OK
Clouds: unknown
Weather: no significant weather observed at this time

METAR text: OIII 172050Z 00000KT CAVOK 30/M01 Q1010 A2984
Conditions at: OIII (TEHRAN/MEHRABAD , IR) observed 2050 UTC 17 June 2019
Temperature: 30.0°C (86°F)
Dewpoint: -1.0°C (30°F) [RH = 13%]
Pressure (altimeter): 29.82 inches Hg (1010.0 mb)
Winds: calm
Visibility: 6 or more miles (10+ km)
Ceiling: ceiling and visibility are OK
Clouds: unknown
Weather: no significant weather observed at this time

METAR text: OIII 172030Z 33006KT CAVOK 30/M03 Q1010 A2984
Conditions at: OIII (TEHRAN/MEHRABAD , IR) observed 2030 UTC 17 June 2019
Temperature: 30.0°C (86°F)
Dewpoint: -3.0°C (27°F) [RH = 12%]
Pressure (altimeter): 29.82 inches Hg (1010.0 mb)
Winds: from the NNW (330 degrees) at 7 MPH (6 knots; 3.1 m/s)
Visibility: 6 or more miles (10+ km)
Ceiling: ceiling and visibility are OK
Clouds: unknown
Weather: no significant weather observed at this time

METAR text: OIII 172020Z 33006KT CAVOK 30/M03 Q1010 A2984
Conditions at: OIII (TEHRAN/MEHRABAD , IR) observed 2020 UTC 17 June 2019
Temperature: 30.0°C (86°F)
Dewpoint: -3.0°C (27°F) [RH = 12%]
Pressure (altimeter): 29.82 inches Hg (1010.0 mb)
Winds: from the NNW (330 degrees) at 7 MPH (6 knots; 3.1 m/s)
Visibility: 6 or more miles (10+ km)
Ceiling: ceiling and visibility are OK
Clouds: unknown
Weather: no significant weather observed at this time

METAR text: OIII 172000Z 35004KT CAVOK 30/M03 Q1010 A2984 NOSIG
Conditions at: OIII (TEHRAN/MEHRABAD , IR) observed 2000 UTC 17 June 2019
Temperature: 30.0°C (86°F)
Dewpoint: -3.0°C (27°F) [RH = 12%]
Pressure (altimeter): 29.82 inches Hg (1010.0 mb)
Winds: from the N (350 degrees) at 5 MPH (4 knots; 2.1 m/s)
Visibility: 6 or more miles (10+ km)
Ceiling: ceiling and visibility are OK
Clouds: unknown
Weather: no significant weather observed at this time

METAR text: OIII 171950Z 35004KT CAVOK 30/M03 Q1010 A2984 NOSIG
Conditions at: OIII (TEHRAN/MEHRABAD , IR) observed 1950 UTC 17 June 2019
Temperature: 30.0°C (86°F)
Dewpoint: -3.0°C (27°F) [RH = 12%]
Pressure (altimeter): 29.82 inches Hg (1010.0 mb)
Winds: from the N (350 degrees) at 5 MPH (4 knots; 2.1 m/s)
Visibility: 6 or more miles (10+ km)
Ceiling: ceiling and visibility are OK
Clouds: unknown
Weather: no significant weather observed at this time

METAR text: OIII 171930Z 33004KT CAVOK 30/M03 Q1010 A2984
Conditions at: OIII (TEHRAN/MEHRABAD , IR) observed 1930 UTC 17 June 2019
Temperature: 30.0°C (86°F)
Dewpoint: -3.0°C (27°F) [RH = 12%]
Pressure (altimeter): 29.82 inches Hg (1010.0 mb)
Winds: from the NNW (330 degrees) at 5 MPH (4 knots; 2.1 m/s)
Visibility: 6 or more miles (10+ km)
Ceiling: ceiling and visibility are OK
Clouds: unknown
Weather: no significant weather observed at this time

METAR text: OIII 171920Z 33004KT CAVOK 30/M03 Q1010 A2984
Conditions at: OIII (TEHRAN/MEHRABAD , IR) observed 1920 UTC 17 June 2019
Temperature: 30.0°C (86°F)
Dewpoint: -3.0°C (27°F) [RH = 12%]
Pressure (altimeter): 29.82 inches Hg (1010.0 mb)
Winds: from the NNW (330 degrees) at 5 MPH (4 knots; 2.1 m/s)
Visibility: 6 or more miles (10+ km)
Ceiling: ceiling and visibility are OK
Clouds: unknown
Weather: no significant weather observed at this time

METAR text: OIII 171900Z 33006KT CAVOK 31/M03 Q1010 A2984
Conditions at: OIII (TEHRAN/MEHRABAD , IR) observed 1900 UTC 17 June 2019
Temperature: 31.0°C (88°F)
Dewpoint: -3.0°C (27°F) [RH = 11%]
Pressure (altimeter): 29.82 inches Hg (1010.0 mb)
Winds: from the NNW (330 degrees) at 7 MPH (6 knots; 3.1 m/s)
Visibility: 6 or more miles (10+ km)
Ceiling: ceiling and visibility are OK
Clouds: unknown
Weather: no significant weather observed at this time

METAR text: OIII 171850Z 33006KT CAVOK 31/M03 Q1010 A2984
Conditions at: OIII (TEHRAN/MEHRABAD , IR) observed 1850 UTC 17 June 2019
Temperature: 31.0°C (88°F)
Dewpoint: -3.0°C (27°F) [RH = 11%]
Pressure (altimeter): 29.82 inches Hg (1010.0 mb)
Winds: from the NNW (330 degrees) at 7 MPH (6 knots; 3.1 m/s)
Visibility: 6 or more miles (10+ km)
Ceiling: ceiling and visibility are OK
Clouds: unknown
Weather: no significant weather observed at this time

METAR text: OIII 171830Z 00000KT CAVOK 32/M03 Q1010 A2984
Conditions at: OIII (TEHRAN/MEHRABAD , IR) observed 1830 UTC 17 June 2019
Temperature: 32.0°C (90°F)
Dewpoint: -3.0°C (27°F) [RH = 10%]
Pressure (altimeter): 29.82 inches Hg (1010.0 mb)
Winds: calm
Visibility: 6 or more miles (10+ km)
Ceiling: ceiling and visibility are OK
Clouds: unknown
Weather: no significant weather observed at this time

METAR text: OIII 171820Z 00000KT CAVOK 32/M03 Q1010 A2984
Conditions at: OIII (TEHRAN/MEHRABAD , IR) observed 1820 UTC 17 June 2019
Temperature: 32.0°C (90°F)
Dewpoint: -3.0°C (27°F) [RH = 10%]
Pressure (altimeter): 29.82 inches Hg (1010.0 mb)
Winds: calm
Visibility: 6 or more miles (10+ km)
Ceiling: ceiling and visibility are OK
Clouds: unknown
Weather: no significant weather observed at this time

METAR text: OIII 171800Z 00000KT CAVOK 31/M03 Q1010 A2983 NOSIG
Conditions at: OIII (TEHRAN/MEHRABAD , IR) observed 1800 UTC 17 June 2019
Temperature: 31.0°C (88°F)
Dewpoint: -3.0°C (27°F) [RH = 11%]
Pressure (altimeter): 29.82 inches Hg (1010.0 mb)
Winds: calm
Visibility: 6 or more miles (10+ km)
Ceiling: ceiling and visibility are OK
Clouds: unknown
Weather: no significant weather observed at this time

METAR text: OIII 171750Z 00000KT CAVOK 31/M03 Q1010 A2983 NOSIG
Conditions at: OIII (TEHRAN/MEHRABAD , IR) observed 1750 UTC 17 June 2019
Temperature: 31.0°C (88°F)
Dewpoint: -3.0°C (27°F) [RH = 11%]
Pressure (altimeter): 29.82 inches Hg (1010.0 mb)
Winds: calm
Visibility: 6 or more miles (10+ km)
Ceiling: ceiling and visibility are OK
Clouds: unknown
Weather: no significant weather observed at this time

METAR text: OIII 171730Z 00000KT 9999 FEW090 31/M01 Q1009 A2982
Conditions at: OIII (TEHRAN/MEHRABAD , IR) observed 1730 UTC 17 June 2019
Temperature: 31.0°C (88°F)
Dewpoint: -1.0°C (30°F) [RH = 13%]
Pressure (altimeter): 29.79 inches Hg (1009.0 mb)
Winds: calm
Visibility: 6 or more miles (10+ km)
Ceiling: at least 12,000 feet AGL
Clouds: few clouds at 9000 feet AGL
Weather: no significant weather observed at this time

METAR text: OIII 171720Z 00000KT 9999 FEW090 31/M01 Q1009 A2982
Conditions at: OIII (TEHRAN/MEHRABAD , IR) observed 1720 UTC 17 June 2019
Temperature: 31.0°C (88°F)
Dewpoint: -1.0°C (30°F) [RH = 13%]
Pressure (altimeter): 29.79 inches Hg (1009.0 mb)
Winds: calm
Visibility: 6 or more miles (10+ km)
Ceiling: at least 12,000 feet AGL
Clouds: few clouds at 9000 feet AGL
Weather: no significant weather observed at this time

METAR text: OIII 171700Z 00000KT 9999 FEW090 32/M03 Q1009 A2982
Conditions at: OIII (TEHRAN/MEHRABAD , IR) observed 1700 UTC 17 June 2019
Temperature: 32.0°C (90°F)
Dewpoint: -3.0°C (27°F) [RH = 10%]
Pressure (altimeter): 29.79 inches Hg (1009.0 mb)
Winds: calm
Visibility: 6 or more miles (10+ km)
Ceiling: at least 12,000 feet AGL
Clouds: few clouds at 9000 feet AGL
Weather: no significant weather observed at this time

METAR text: OIII 171650Z 00000KT 9999 FEW090 32/M03 Q1009 A2982
Conditions at: OIII (TEHRAN/MEHRABAD , IR) observed 1650 UTC 17 June 2019
Temperature: 32.0°C (90°F)
Dewpoint: -3.0°C (27°F) [RH = 10%]
Pressure (altimeter): 29.79 inches Hg (1009.0 mb)
Winds: calm
Visibility: 6 or more miles (10+ km)
Ceiling: at least 12,000 feet AGL
Clouds: few clouds at 9000 feet AGL
Weather: no significant weather observed at this time

METAR text: OIII 171630Z 29004KT 9999 FEW090 33/M04 Q1009 A2981
Conditions at: OIII (TEHRAN/MEHRABAD , IR) observed 1630 UTC 17 June 2019
Temperature: 33.0°C (91°F)
Dewpoint: -4.0°C (25°F) [RH =  9%]
Pressure (altimeter): 29.79 inches Hg (1009.0 mb)
Winds: from the WNW (290 degrees) at 5 MPH (4 knots; 2.1 m/s)
Visibility: 6 or more miles (10+ km)
Ceiling: at least 12,000 feet AGL
Clouds: few clouds at 9000 feet AGL
Weather: no significant weather observed at this time

METAR text: OIII 171620Z 29004KT 9999 FEW090 33/M04 Q1009 A2981
Conditions at: OIII (TEHRAN/MEHRABAD , IR) observed 1620 UTC 17 June 2019
Temperature: 33.0°C (91°F)
Dewpoint: -4.0°C (25°F) [RH =  9%]
Pressure (altimeter): 29.79 inches Hg (1009.0 mb)
Winds: from the WNW (290 degrees) at 5 MPH (4 knots; 2.1 m/s)
Visibility: 6 or more miles (10+ km)
Ceiling: at least 12,000 feet AGL
Clouds: few clouds at 9000 feet AGL
Weather: no significant weather observed at this time

METAR text: OIII 171600Z 29008KT 9999 FEW045 35/M04 Q1009 A2981
Conditions at: OIII (TEHRAN/MEHRABAD , IR) observed 1600 UTC 17 June 2019
Temperature: 35.0°C (95°F)
Dewpoint: -4.0°C (25°F) [RH =  8%]
Pressure (altimeter): 29.79 inches Hg (1009.0 mb)
Winds: from the WNW (290 degrees) at 9 MPH (8 knots; 4.1 m/s)
Visibility: 6 or more miles (10+ km)
Ceiling: at least 12,000 feet AGL
Clouds: few clouds at 4500 feet AGL
Weather: no significant weather observed at this time

METAR text: OIII 171550Z 29008KT 9999 FEW045 35/M04 Q1009 A2981
Conditions at: OIII (TEHRAN/MEHRABAD , IR) observed 1550 UTC 17 June 2019
Temperature: 35.0°C (95°F)
Dewpoint: -4.0°C (25°F) [RH =  8%]
Pressure (altimeter): 29.79 inches Hg (1009.0 mb)
Winds: from the WNW (290 degrees) at 9 MPH (8 knots; 4.1 m/s)
Visibility: 6 or more miles (10+ km)
Ceiling: at least 12,000 feet AGL
Clouds: few clouds at 4500 feet AGL
Weather: no significant weather observed at this time

METAR text: OIII 171530Z 29008KT 9999 FEW045 35/M04 Q1009 A2981
Conditions at: OIII (TEHRAN/MEHRABAD , IR) observed 1530 UTC 17 June 2019
Temperature: 35.0°C (95°F)
Dewpoint: -4.0°C (25°F) [RH =  8%]
Pressure (altimeter): 29.79 inches Hg (1009.0 mb)
Winds: from the WNW (290 degrees) at 9 MPH (8 knots; 4.1 m/s)
Visibility: 6 or more miles (10+ km)
Ceiling: at least 12,000 feet AGL
Clouds: few clouds at 4500 feet AGL
Weather: no significant weather observed at this time

METAR text: OIII 171520Z 29008KT 9999 FEW045 35/M04 Q1009 A2981
Conditions at: OIII (TEHRAN/MEHRABAD , IR) observed 1520 UTC 17 June 2019
Temperature: 35.0°C (95°F)
Dewpoint: -4.0°C (25°F) [RH =  8%]
Pressure (altimeter): 29.79 inches Hg (1009.0 mb)
Winds: from the WNW (290 degrees) at 9 MPH (8 knots; 4.1 m/s)
Visibility: 6 or more miles (10+ km)
Ceiling: at least 12,000 feet AGL
Clouds: few clouds at 4500 feet AGL
Weather: no significant weather observed at this time

METAR text: OIII 171500Z 29006KT 9999 FEW045 36/M05 Q1009 A2980 NOSIG
Conditions at: OIII (TEHRAN/MEHRABAD , IR) observed 1500 UTC 17 June 2019
Temperature: 36.0°C (97°F)
Dewpoint: -5.0°C (23°F) [RH =  7%]
Pressure (altimeter): 29.79 inches Hg (1009.0 mb)
Winds: from the WNW (290 degrees) at 7 MPH (6 knots; 3.1 m/s)
Visibility: 6 or more miles (10+ km)
Ceiling: at least 12,000 feet AGL
Clouds: few clouds at 4500 feet AGL
Weather: no significant weather observed at this time

METAR text: OIII 171450Z 29006KT 9999 FEW045 36/M05 Q1009 A2980 NOSIG
Conditions at: OIII (TEHRAN/MEHRABAD , IR) observed 1450 UTC 17 June 2019
Temperature: 36.0°C (97°F)
Dewpoint: -5.0°C (23°F) [RH =  7%]
Pressure (altimeter): 29.79 inches Hg (1009.0 mb)
Winds: from the WNW (290 degrees) at 7 MPH (6 knots; 3.1 m/s)
Visibility: 6 or more miles (10+ km)
Ceiling: at least 12,000 feet AGL
Clouds: few clouds at 4500 feet AGL
Weather: no significant weather observed at this time

METAR text: OIII 171430Z 29008KT 9999 FEW040 36/M05 Q1009 A2980
Conditions at: OIII (TEHRAN/MEHRABAD , IR) observed 1430 UTC 17 June 2019
Temperature: 36.0°C (97°F)
Dewpoint: -5.0°C (23°F) [RH =  7%]
Pressure (altimeter): 29.79 inches Hg (1009.0 mb)
Winds: from the WNW (290 degrees) at 9 MPH (8 knots; 4.1 m/s)
Visibility: 6 or more miles (10+ km)
Ceiling: at least 12,000 feet AGL
Clouds: few clouds at 4000 feet AGL
Weather: no significant weather observed at this time

METAR text: OIII 171400Z 29008KT 9999 FEW040 37/M04 Q1009 A2980 NOSIG
Conditions at: OIII (TEHRAN/MEHRABAD , IR) observed 1400 UTC 17 June 2019
Temperature: 37.0°C (99°F)
Dewpoint: -4.0°C (25°F) [RH =  7%]
Pressure (altimeter): 29.79 inches Hg (1009.0 mb)
Winds: from the WNW (290 degrees) at 9 MPH (8 knots; 4.1 m/s)
Visibility: 6 or more miles (10+ km)
Ceiling: at least 12,000 feet AGL
Clouds: few clouds at 4000 feet AGL
Weather: no significant weather observed at this time

METAR text: OIII 171330Z 19006KT 9999 FEW040 36/M03 Q1009 A2980
Conditions at: OIII (TEHRAN/MEHRABAD , IR) observed 1330 UTC 17 June 2019
Temperature: 36.0°C (97°F)
Dewpoint: -3.0°C (27°F) [RH =  8%]
Pressure (altimeter): 29.79 inches Hg (1009.0 mb)
Winds: from the S (190 degrees) at 7 MPH (6 knots; 3.1 m/s)
Visibility: 6 or more miles (10+ km)
Ceiling: at least 12,000 feet AGL
Clouds: few clouds at 4000 feet AGL
Weather: no significant weather observed at this time

METAR text: OIII 171300Z 29008KT 9999 FEW040 37/M05 Q1009 A2980 NOSIG
Conditions at: OIII (TEHRAN/MEHRABAD , IR) observed 1300 UTC 17 June 2019
Temperature: 37.0°C (99°F)
Dewpoint: -5.0°C (23°F) [RH =  7%]
Pressure (altimeter): 29.79 inches Hg (1009.0 mb)
Winds: from the WNW (290 degrees) at 9 MPH (8 knots; 4.1 m/s)
Visibility: 6 or more miles (10+ km)
Ceiling: at least 12,000 feet AGL
Clouds: few clouds at 4000 feet AGL
Weather: no significant weather observed at this time

METAR text: OIII 171230Z 24006KT 9999 FEW040 36/M05 Q1009 A2982
Conditions at: OIII (TEHRAN/MEHRABAD , IR) observed 1230 UTC 17 June 2019
Temperature: 36.0°C (97°F)
Dewpoint: -5.0°C (23°F) [RH =  7%]
Pressure (altimeter): 29.79 inches Hg (1009.0 mb)
Winds: from the WSW (240 degrees) at 7 MPH (6 knots; 3.1 m/s)
Visibility: 6 or more miles (10+ km)
Ceiling: at least 12,000 feet AGL
Clouds: few clouds at 4000 feet AGL
Weather: no significant weather observed at this time

METAR text: OIII 171200Z 26008KT 9999 FEW040 37/M05 Q1010 A2983 NOSIG
Conditions at: OIII (TEHRAN/MEHRABAD , IR) observed 1200 UTC 17 June 2019
Temperature: 37.0°C (99°F)
Dewpoint: -5.0°C (23°F) [RH =  7%]
Pressure (altimeter): 29.82 inches Hg (1010.0 mb)
Winds: from the W (260 degrees) at 9 MPH (8 knots; 4.1 m/s)
Visibility: 6 or more miles (10+ km)
Ceiling: at least 12,000 feet AGL
Clouds: few clouds at 4000 feet AGL
Weather: no significant weather observed at this time

METAR text: OIII 171130Z 03004KT 9999 FEW040 36/M05 Q1010 A2984
Conditions at: OIII (TEHRAN/MEHRABAD , IR) observed 1130 UTC 17 June 2019
Temperature: 36.0°C (97°F)
Dewpoint: -5.0°C (23°F) [RH =  7%]
Pressure (altimeter): 29.82 inches Hg (1010.0 mb)
Winds: from the NNE (30 degrees) at 5 MPH (4 knots; 2.1 m/s)
Visibility: 6 or more miles (10+ km)
Ceiling: at least 12,000 feet AGL
Clouds: few clouds at 4000 feet AGL
Weather: no significant weather observed at this time

METAR text: OIII 171100Z 14006KT 9999 FEW040 36/M07 Q1011 A2986 NOSIG
Conditions at: OIII (TEHRAN/MEHRABAD , IR) observed 1100 UTC 17 June 2019
Temperature: 36.0°C (97°F)
Dewpoint: -7.0°C (19°F) [RH =  6%]
Pressure (altimeter): 29.85 inches Hg (1011.0 mb)
Winds: from the SE (140 degrees) at 7 MPH (6 knots; 3.1 m/s)
Visibility: 6 or more miles (10+ km)
Ceiling: at least 12,000 feet AGL
Clouds: few clouds at 4000 feet AGL
Weather: no significant weather observed at this time

METAR text: OIII 171030Z 24012KT 9999 FEW040 36/M04 Q1011 A2986
Conditions at: OIII (TEHRAN/MEHRABAD , IR) observed 1030 UTC 17 June 2019
Temperature: 36.0°C (97°F)
Dewpoint: -4.0°C (25°F) [RH =  8%]
Pressure (altimeter): 29.85 inches Hg (1011.0 mb)
Winds: from the WSW (240 degrees) at 14 MPH (12 knots; 6.2 m/s)
Visibility: 6 or more miles (10+ km)
Ceiling: at least 12,000 feet AGL
Clouds: few clouds at 4000 feet AGL
Weather: no significant weather observed at this time

METAR text: OIII 171000Z 24010KT 9999 FEW040 35/M04 Q1011 A2988 NOSIG
Conditions at: OIII (TEHRAN/MEHRABAD , IR) observed 1000 UTC 17 June 2019
Temperature: 35.0°C (95°F)
Dewpoint: -4.0°C (25°F) [RH =  8%]
Pressure (altimeter): 29.85 inches Hg (1011.0 mb)
Winds: from the WSW (240 degrees) at 12 MPH (10 knots; 5.1 m/s)
Visibility: 6 or more miles (10+ km)
Ceiling: at least 12,000 feet AGL
Clouds: few clouds at 4000 feet AGL
Weather: no significant weather observed at this time

METAR text: OIII 170930Z 12008KT 9999 FEW040 35/M01 Q1011 A2988
Conditions at: OIII (TEHRAN/MEHRABAD , IR) observed 0930 UTC 17 June 2019
Temperature: 35.0°C (95°F)
Dewpoint: -1.0°C (30°F) [RH = 10%]
Pressure (altimeter): 29.85 inches Hg (1011.0 mb)
Winds: from the ESE (120 degrees) at 9 MPH (8 knots; 4.1 m/s)
Visibility: 6 or more miles (10+ km)
Ceiling: at least 12,000 feet AGL
Clouds: few clouds at 4000 feet AGL
Weather: no significant weather observed at this time

METAR text: OIII 170900Z 09008KT 9999 FEW040 34/M01 Q1012 A2990
Conditions at: OIII (TEHRAN/MEHRABAD , IR) observed 0900 UTC 17 June 2019
Temperature: 34.0°C (93°F)
Dewpoint: -1.0°C (30°F) [RH = 11%]
Pressure (altimeter): 29.88 inches Hg (1012.0 mb)
Winds: from the E (90 degrees) at 9 MPH (8 knots; 4.1 m/s)
Visibility: 6 or more miles (10+ km)
Ceiling: at least 12,000 feet AGL
Clouds: few clouds at 4000 feet AGL
Weather: no significant weather observed at this time

METAR text: OIII 170830Z 06006KT 9999 FEW040 34/M01 Q1012 A2991
Conditions at: OIII (TEHRAN/MEHRABAD , IR) observed 0830 UTC 17 June 2019
Temperature: 34.0°C (93°F)
Dewpoint: -1.0°C (30°F) [RH = 11%]
Pressure (altimeter): 29.88 inches Hg (1012.0 mb)
Winds: from the ENE (60 degrees) at 7 MPH (6 knots; 3.1 m/s)
Visibility: 6 or more miles (10+ km)
Ceiling: at least 12,000 feet AGL
Clouds: few clouds at 4000 feet AGL
Weather: no significant weather observed at this time

METAR text: OIII 170800Z 15010KT 9999 FEW040 34/00 Q1013 A2992 NOSIG
Conditions at: OIII (TEHRAN/MEHRABAD , IR) observed 0800 UTC 17 June 2019
Temperature: 34.0°C (93°F)
Dewpoint: 0.0°C (32°F) [RH = 11%]
Pressure (altimeter): 29.91 inches Hg (1013.0 mb)
Winds: from the SSE (150 degrees) at 12 MPH (10 knots; 5.1 m/s)
Visibility: 6 or more miles (10+ km)
Ceiling: at least 12,000 feet AGL
Clouds: few clouds at 4000 feet AGL
Weather: no significant weather observed at this time

METAR text: OIII 170730Z 16010KT 9999 FEW040 33/M00 Q1013 A2993
Conditions at: OIII (TEHRAN/MEHRABAD , IR) observed 0730 UTC 17 June 2019
Temperature: 33.0°C (91°F)
Dewpoint: 0.0°C (32°F) [RH = 12%]
Pressure (altimeter): 29.91 inches Hg (1013.0 mb)
Winds: from the SSE (160 degrees) at 12 MPH (10 knots; 5.1 m/s)
Visibility: 6 or more miles (10+ km)
Ceiling: at least 12,000 feet AGL
Clouds: few clouds at 4000 feet AGL
Weather: no significant weather observed at this time

METAR text: OIII 170700Z 17012KT CAVOK 33/M00 Q1013 A2993 NOSIG
Conditions at: OIII (TEHRAN/MEHRABAD , IR) observed 0700 UTC 17 June 2019
Temperature: 33.0°C (91°F)
Dewpoint: 0.0°C (32°F) [RH = 12%]
Pressure (altimeter): 29.91 inches Hg (1013.0 mb)
Winds: from the S (170 degrees) at 14 MPH (12 knots; 6.2 m/s)
Visibility: 6 or more miles (10+ km)
Ceiling: ceiling and visibility are OK
Clouds: unknown
Weather: no significant weather observed at this time

METAR text: OIII 170630Z 15012KT CAVOK 33/M00 Q1013 A2994
Conditions at: OIII (TEHRAN/MEHRABAD , IR) observed 0630 UTC 17 June 2019
Temperature: 33.0°C (91°F)
Dewpoint: 0.0°C (32°F) [RH = 12%]
Pressure (altimeter): 29.91 inches Hg (1013.0 mb)
Winds: from the SSE (150 degrees) at 14 MPH (12 knots; 6.2 m/s)
Visibility: 6 or more miles (10+ km)
Ceiling: ceiling and visibility are OK
Clouds: unknown
Weather: no significant weather observed at this time

METAR text: OIII 170600Z 14006KT CAVOK 32/M01 Q1013 A2994 NOSIG
Conditions at: OIII (TEHRAN/MEHRABAD , IR) observed 0600 UTC 17 June 2019
Temperature: 32.0°C (90°F)
Dewpoint: -1.0°C (30°F) [RH = 12%]
Pressure (altimeter): 29.91 inches Hg (1013.0 mb)
Winds: from the SE (140 degrees) at 7 MPH (6 knots; 3.1 m/s)
Visibility: 6 or more miles (10+ km)
Ceiling: ceiling and visibility are OK
Clouds: unknown
Weather: no significant weather observed at this time

METAR text: OIII 170530Z 13006KT 9999 FEW100 31/M01 Q1013 A2993
Conditions at: OIII (TEHRAN/MEHRABAD , IR) observed 0530 UTC 17 June 2019
Temperature: 31.0°C (88°F)
Dewpoint: -1.0°C (30°F) [RH = 13%]
Pressure (altimeter): 29.91 inches Hg (1013.0 mb)
Winds: from the SE (130 degrees) at 7 MPH (6 knots; 3.1 m/s)
Visibility: 6 or more miles (10+ km)
Ceiling: at least 12,000 feet AGL
Clouds: few clouds at 10000 feet AGL
Weather: no significant weather observed at this time

METAR text: OIII 170500Z 18006KT 9999 FEW100 31/M02 Q1013 A2994 NOSIG
Conditions at: OIII (TEHRAN/MEHRABAD , IR) observed 0500 UTC 17 June 2019
Temperature: 31.0°C (88°F)
Dewpoint: -2.0°C (28°F) [RH = 12%]
Pressure (altimeter): 29.91 inches Hg (1013.0 mb)
Winds: from the S (180 degrees) at 7 MPH (6 knots; 3.1 m/s)
Visibility: 6 or more miles (10+ km)
Ceiling: at least 12,000 feet AGL
Clouds: few clouds at 10000 feet AGL
Weather: no significant weather observed at this time

METAR text: OIII 170430Z 20006KT 9999 FEW100 31/M01 Q1013 A2994
Conditions at: OIII (TEHRAN/MEHRABAD , IR) observed 0430 UTC 17 June 2019
Temperature: 31.0°C (88°F)
Dewpoint: -1.0°C (30°F) [RH = 13%]
Pressure (altimeter): 29.91 inches Hg (1013.0 mb)
Winds: from the SSW (200 degrees) at 7 MPH (6 knots; 3.1 m/s)
Visibility: 6 or more miles (10+ km)
Ceiling: at least 12,000 feet AGL
Clouds: few clouds at 10000 feet AGL
Weather: no significant weather observed at this time

METAR text: OIII 170425Z 20006KT 9999 FEW100 31/M01 Q1013 A2994
Conditions at: OIII (TEHRAN/MEHRABAD , IR) observed 0425 UTC 17 June 2019
Temperature: 31.0°C (88°F)
Dewpoint: -1.0°C (30°F) [RH = 13%]
Pressure (altimeter): 29.91 inches Hg (1013.0 mb)
Winds: from the SSW (200 degrees) at 7 MPH (6 knots; 3.1 m/s)
Visibility: 6 or more miles (10+ km)
Ceiling: at least 12,000 feet AGL
Clouds: few clouds at 10000 feet AGL
Weather: no significant weather observed at this time

METAR text: OIII 170400Z 17004KT 9999 SCT100 30/M03 Q1013 A2993 NOSIG
Conditions at: OIII (TEHRAN/MEHRABAD , IR) observed 0400 UTC 17 June 2019
Temperature: 30.0°C (86°F)
Dewpoint: -3.0°C (27°F) [RH = 12%]
Pressure (altimeter): 29.91 inches Hg (1013.0 mb)
Winds: from the S (170 degrees) at 5 MPH (4 knots; 2.1 m/s)
Visibility: 6 or more miles (10+ km)
Ceiling: at least 12,000 feet AGL
Clouds: scattered clouds at 10000 feet AGL
Weather: no significant weather observed at this time

METAR text: OIII 170330Z 00000KT 9999 SCT100 31/M01 Q1013 A2992
Conditions at: OIII (TEHRAN/MEHRABAD , IR) observed 0330 UTC 17 June 2019
Temperature: 31.0°C (88°F)
Dewpoint: -1.0°C (30°F) [RH = 13%]
Pressure (altimeter): 29.91 inches Hg (1013.0 mb)
Winds: calm
Visibility: 6 or more miles (10+ km)
Ceiling: at least 12,000 feet AGL
Clouds: scattered clouds at 10000 feet AGL
Weather: no significant weather observed at this time

METAR text: OIII 170300Z 00000KT 9999 FEW035 SCT090 28/M02 Q1012 A2991
Conditions at: OIII (TEHRAN/MEHRABAD , IR) observed 0300 UTC 17 June 2019
Temperature: 28.0°C (82°F)
Dewpoint: -2.0°C (28°F) [RH = 14%]
Pressure (altimeter): 29.88 inches Hg (1012.0 mb)
Winds: calm
Visibility: 6 or more miles (10+ km)
Ceiling: at least 12,000 feet AGL
Clouds: few clouds at 3500 feet AGL
scattered clouds at 9000 feet AGL
Weather: no significant weather observed at this time

METAR text: OIII 170230Z 32006KT 9999 FEW035 SCT090 28/M02 Q1012 A2991
Conditions at: OIII (TEHRAN/MEHRABAD , IR) observed 0230 UTC 17 June 2019
Temperature: 28.0°C (82°F)
Dewpoint: -2.0°C (28°F) [RH = 14%]
Pressure (altimeter): 29.88 inches Hg (1012.0 mb)
Winds: from the NW (320 degrees) at 7 MPH (6 knots; 3.1 m/s)
Visibility: 6 or more miles (10+ km)
Ceiling: at least 12,000 feet AGL
Clouds: few clouds at 3500 feet AGL
scattered clouds at 9000 feet AGL
Weather: no significant weather observed at this time

METAR text: OIII 170200Z 31004KT 9999 FEW035 SCT090 27/M02 Q1012 A2989
Conditions at: OIII (TEHRAN/MEHRABAD , IR) observed 0200 UTC 17 June 2019
Temperature: 27.0°C (81°F)
Dewpoint: -2.0°C (28°F) [RH = 15%]
Pressure (altimeter): 29.88 inches Hg (1012.0 mb)
Winds: from the NW (310 degrees) at 5 MPH (4 knots; 2.1 m/s)
Visibility: 6 or more miles (10+ km)
Ceiling: at least 12,000 feet AGL
Clouds: few clouds at 3500 feet AGL
scattered clouds at 9000 feet AGL
Weather: no significant weather observed at this time

METAR text: OIII 170130Z 33004KT 9999 FEW035 SCT090 27/00 Q1011 A2988
Conditions at: OIII (TEHRAN/MEHRABAD , IR) observed 0130 UTC 17 June 2019
Temperature: 27.0°C (81°F)
Dewpoint: 0.0°C (32°F) [RH = 17%]
Pressure (altimeter): 29.85 inches Hg (1011.0 mb)
Winds: from the NNW (330 degrees) at 5 MPH (4 knots; 2.1 m/s)
Visibility: 6 or more miles (10+ km)
Ceiling: at least 12,000 feet AGL
Clouds: few clouds at 3500 feet AGL
scattered clouds at 9000 feet AGL
Weather: no significant weather observed at this time

METAR text: OIII 170100Z /////KT 9999 FEW035 SCT090 26/03 Q1011 NOSIG
Conditions at: OIII (TEHRAN/MEHRABAD , IR) observed 0100 UTC 17 June 2019
Temperature: 26.0°C (79°F)
Dewpoint: 3.0°C (37°F) [RH = 23%]
Pressure (altimeter): 29.85 inches Hg (1011.0 mb)
Winds: missing
Visibility: 6 or more miles (10+ km)
Ceiling: at least 12,000 feet AGL
Clouds: few clouds at 3500 feet AGL
scattered clouds at 9000 feet AGL
Weather: no significant weather observed at this time

METAR text: OIII 170030Z 01004KT 9999 FEW035 SCT090 27/04 Q1011 A2988
Conditions at: OIII (TEHRAN/MEHRABAD , IR) observed 0030 UTC 17 June 2019
Temperature: 27.0°C (81°F)
Dewpoint: 4.0°C (39°F) [RH = 23%]
Pressure (altimeter): 29.85 inches Hg (1011.0 mb)
Winds: from the N (10 degrees) at 5 MPH (4 knots; 2.1 m/s)
Visibility: 6 or more miles (10+ km)
Ceiling: at least 12,000 feet AGL
Clouds: few clouds at 3500 feet AGL
scattered clouds at 9000 feet AGL
Weather: no significant weather observed at this time

METAR text: OIII 170000Z 03004KT 9999 FEW035 28/03 Q1011 A2988 NOSIG
Conditions at: OIII (TEHRAN/MEHRABAD , IR) observed 0000 UTC 17 June 2019
Temperature: 28.0°C (82°F)
Dewpoint: 3.0°C (37°F) [RH = 20%]
Pressure (altimeter): 29.85 inches Hg (1011.0 mb)
Winds: from the NNE (30 degrees) at 5 MPH (4 knots; 2.1 m/s)
Visibility: 6 or more miles (10+ km)
Ceiling: at least 12,000 feet AGL
Clouds: few clouds at 3500 feet AGL
Weather: no significant weather observed at this time

METAR text: OIII 162330Z 00000KT 9999 FEW035 26/02 Q1011 A2987
Conditions at: OIII (TEHRAN/MEHRABAD , IR) observed 2330 UTC 16 June 2019
Temperature: 26.0°C (79°F)
Dewpoint: 2.0°C (36°F) [RH = 21%]
Pressure (altimeter): 29.85 inches Hg (1011.0 mb)
Winds: calm
Visibility: 6 or more miles (10+ km)
Ceiling: at least 12,000 feet AGL
Clouds: few clouds at 3500 feet AGL
Weather: no significant weather observed at this time

Forecast for: OIII (TEHRAN/MEHRABAD , IR)
Text: TAF OIII 180530Z 1806/1912 14008KT CAVOK
Forecast period: 0600 UTC 18 June 2019 to 1200 UTC 19 June 2019
Forecast type: FROM: standard forecast or significant change
Winds: from the SE (140 degrees) at 9 MPH (8 knots; 4.1 m/s)
Visibility: 6 or more miles 10+ km)
Ceiling: unknown
Clouds: missing
Weather: NSW  (no significant weather)
Text: TEMPO 1907/1912 FEW035CB SCT100
Forecast period: 0700 to 1200 UTC 19 June 2019
Forecast type: TEMPORARY: The following changes expected for less than half the time period
Visibility: missing
Ceiling: at least 12,000 feet AGL
Clouds: few clouds at 3500 feet AGL
scattered clouds at 10000 feet AGL
Weather: no significant weather forecast for this period